Carnigan, Georgia
Current Conditions -  °F | °C
As of 7:15 AM on Friday 28 Nov 2014 (Local Time) from KBQK Reporting Station
Clear Clear  
Wind Chill: 32°   Ceiling: Unl
Heat Index: 36°   Visibility: 10mi
Dew Point: 30°   Wind: 5mph
Humidity: 81%   Direction: 330°NNW
Pressure: 30.37"   Gusts: NA
Location:  31.4309°N, 81.4437°W
Report Text: KBQK 281215Z AUTO 33004KT 10SM CLR 02/M01 A3037 RMK AO1
Loading
Personal Weather Stations






























Interactive Weather Map New forecast layout! Learn more

10-Day Weather Forecast

Advertisements
Track Severe Weather on mobile